Time;durP1;ratioP1;P1;durP2;ratioP2;P2;SDS_P1;SDS_P2;PMS_P1;PMS_P2;Temp;Humidity;BMP_temperature;BMP_pressure;BME280_temperature;BME280_humidity;BME280_pressure;Samples;Min_cycle;Max_cycle;Signal;HPM_P1;HPM_P2
2022/05/05 00:01:14;;;;;;;;;20.25;20.25;;;;;14.16;59.35;101210.75;4963329;28;45339;-61
2022/05/05 00:03:40;;;;;;;;;21.50;20.75;;;;;14.16;59.47;101207.25;4955922;28;45365;-61
2022/05/05 00:06:05;;;;;;;;;25.25;21.25;;;;;14.22;59.31;101219.34;4955927;28;45902;-61
2022/05/05 00:08:30;;;;;;;;;19.00;18.00;;;;;14.23;59.19;101219.25;4970758;28;45334;-61
2022/05/05 00:16:24;;;;;;;;;16.25;16.25;;;;;14.21;58.82;101218.47;4955938;28;45366;-61
2022/05/05 00:18:50;;;;;;;;;17.50;16.75;;;;;14.21;58.92;101226.41;4957532;28;45340;-60
2022/05/05 00:21:15;;;;;;;;;21.75;19.50;;;;;14.18;58.79;101223.91;4959273;28;45344;-60
2022/05/05 00:23:41;;;;;;;;;18.00;17.00;;;;;14.15;58.65;101224.03;4957015;28;45616;-62
2022/05/05 00:26:06;;;;;;;;;17.50;17.50;;;;;14.10;58.84;101229.56;4955560;28;46159;-62
2022/05/05 00:28:31;;;;;;;;;18.50;15.00;;;;;13.97;58.76;101208.06;4955504;28;45222;-62
2022/05/05 00:30:57;;;;;;;;;21.00;18.00;;;;;13.97;58.83;101217.81;4955589;28;45225;-60
2022/05/05 00:33:22;;;;;;;;;14.75;14.50;;;;;13.96;58.76;101230.16;4955403;28;45427;-60
2022/05/05 00:35:47;;;;;;;;;20.50;19.00;;;;;13.88;59.21;101227.88;4954928;28;45341;-62
2022/05/05 00:38:13;;;;;;;;;20.50;17.00;;;;;13.80;59.37;101213.25;4955950;28;45222;-61
2022/05/05 00:40:42;;;;;;;;;15.25;14.25;;;;;13.75;59.79;101221.38;4957369;28;45551;-61
2022/05/05 00:43:07;;;;;;;;;22.00;17.75;;;;;13.74;60.00;101224.94;4955029;28;45523;-61
2022/05/05 00:45:32;;;;;;;;;14.00;14.00;;;;;13.69;60.09;101217.22;4955756;28;45549;-61
2022/05/05 00:48:06;;;;;;;;;17.25;16.50;;;;;13.71;59.99;101225.94;4955115;28;45372;-62
2022/05/05 00:50:34;;;;;;;;;14.75;14.75;;;;;13.72;59.93;101232.06;4954692;28;45494;-61
2022/05/05 00:53:00;;;;;;;;;19.25;17.00;;;;;13.61;60.24;101211.41;4954854;28;45592;-62
2022/05/05 00:55:25;;;;;;;;;17.00;15.00;;;;;13.64;60.41;101224.50;4955111;28;45483;-61
2022/05/05 00:57:51;;;;;;;;;19.25;17.00;;;;;13.59;60.56;101221.19;4956994;28;45384;-61
2022/05/05 01:00:16;;;;;;;;;17.50;16.50;;;;;13.62;60.65;101231.63;4955972;28;45630;-61
2022/05/05 01:02:42;;;;;;;;;19.75;17.00;;;;;13.61;60.48;101231.66;4954656;28;45614;-61
2022/05/05 01:05:08;;;;;;;;;15.00;15.00;;;;;13.57;60.58;101226.53;4956783;28;45592;-62
2022/05/05 01:07:34;;;;;;;;;17.00;15.50;;;;;13.52;60.33;101228.50;4960273;28;45339;-61
2022/05/05 01:10:00;;;;;;;;;14.25;13.00;;;;;13.51;60.44;101233.88;4961956;28;45462;-60
2022/05/05 01:12:31;;;;;;;;;15.00;12.50;;;;;13.49;60.22;101231.28;4964610;28;45247;-61
2022/05/05 01:14:59;;;;;;;;;16.50;15.00;;;;;13.48;60.38;101234.84;4958668;28;45370;-61
2022/05/05 01:17:26;;;;;;;;;13.25;13.25;;;;;13.49;60.40;101236.56;4958331;28;45249;-61
2022/05/05 01:19:51;;;;;;;;;14.50;13.00;;;;;13.48;60.17;101231.34;4940293;28;45344;-61
2022/05/05 01:22:17;;;;;;;;;8.00;8.00;;;;;13.46;59.95;101228.75;4957644;28;45609;-62
2022/05/05 01:30:12;;;;;;;;;13.00;12.00;;;;;13.34;60.28;101237.16;4957998;28;45368;-61
2022/05/05 01:32:37;;;;;;;;;11.25;10.75;;;;;13.28;60.24;101241.78;4957756;28;45565;-61
2022/05/05 01:35:03;;;;;;;;;13.75;12.00;;;;;13.23;60.24;101241.13;4958069;28;46937;-62
2022/05/05 01:37:29;;;;;;;;;10.25;10.25;;;;;13.17;60.54;101233.44;4960484;28;45258;-60
2022/05/05 01:39:55;;;;;;;;;10.75;10.75;;;;;13.15;60.54;101230.00;4954812;28;45339;-61
2022/05/05 01:42:20;;;;;;;;;13.25;10.00;;;;;13.09;60.96;101241.66;4957731;28;45543;-62
2022/05/05 01:44:46;;;;;;;;;8.50;8.50;;;;;13.04;61.25;101234.84;4957950;28;45643;-62
2022/05/05 01:47:11;;;;;;;;;9.00;9.00;;;;;12.96;61.59;101229.88;4957191;28;45807;-60
2022/05/05 01:49:37;;;;;;;;;10.50;9.00;;;;;12.92;61.58;101228.28;4957556;28;46735;-61
2022/05/05 01:52:07;;;;;;;;;11.25;11.25;;;;;12.84;62.35;101231.22;4940584;28;45513;-61
2022/05/05 01:54:32;;;;;;;;;8.50;8.00;;;;;12.81;62.20;101231.34;4958199;28;46255;-60
2022/05/05 01:56:58;;;;;;;;;12.75;11.25;;;;;12.75;62.33;101231.59;4957150;28;45369;-62
2022/05/05 01:59:23;;;;;;;;;11.75;11.75;;;;;12.71;62.23;101233.47;4957397;28;45383;-62
2022/05/05 02:01:48;;;;;;;;;11.50;10.25;;;;;12.68;62.45;101241.53;4957596;28;45488;-60
2022/05/05 02:04:14;;;;;;;;;9.25;9.00;;;;;12.63;63.07;101233.75;4957205;28;47327;-63
2022/05/05 02:06:42;;;;;;;;;16.00;13.25;;;;;12.55;62.45;101223.50;4957511;28;45341;-62
2022/05/05 02:09:07;;;;;;;;;15.75;12.25;;;;;12.57;63.39;101236.63;4957679;28;45406;-60
2022/05/05 02:11:32;;;;;;;;;12.00;12.00;;;;;12.53;62.73;101240.31;4956955;28;45387;-60
2022/05/05 02:13:58;;;;;;;;;13.50;12.25;;;;;12.49;62.87;101238.72;4956302;28;46220;-61
2022/05/05 02:16:23;;;;;;;;;12.25;12.25;;;;;12.44;62.97;101238.03;4956281;28;45243;-60
2022/05/05 02:18:48;;;;;;;;;11.50;11.50;;;;;12.41;63.32;101237.22;4939966;28;45370;-61
2022/05/05 02:21:14;;;;;;;;;9.25;9.25;;;;;12.41;63.61;101239.84;4957375;28;45456;-62
2022/05/05 02:23:39;;;;;;;;;13.75;13.00;;;;;12.38;63.13;101234.69;4956216;28;45402;-62
2022/05/05 02:26:05;;;;;;;;;13.00;11.00;;;;;12.34;63.54;101230.44;4957882;28;45272;-60
2022/05/05 02:28:31;;;;;;;;;16.25;12.25;;;;;12.32;63.41;101234.94;4966698;28;45279;-60
2022/05/05 02:30:57;;;;;;;;;12.00;10.50;;;;;12.31;63.31;101229.72;4976438;28;45509;-61
2022/05/05 02:33:22;;;;;;;;;12.00;12.00;;;;;12.30;63.84;101234.13;4963434;28;46190;-61
2022/05/05 02:38:42;;;;;;;;;14.25;12.00;;;;;12.22;63.96;101226.50;4964068;28;45377;-59
2022/05/05 02:38:47;;;;;;;;;15.25;15.25;;;;;12.24;63.63;101224.69;4976543;28;45368;-59
2022/05/05 02:41:13;;;;;;;;;17.75;15.50;;;;;12.26;64.14;101229.88;4977694;28;45246;-61
2022/05/05 02:43:38;;;;;;;;;16.75;13.25;;;;;12.24;64.33;101229.94;4944637;28;47068;-61
2022/05/05 02:46:04;;;;;;;;;19.25;17.50;;;;;12.23;64.92;101228.22;4960069;28;45319;-62
2022/05/05 02:48:29;;;;;;;;;14.50;14.50;;;;;12.22;65.07;101221.22;4962102;28;45253;-59
2022/05/05 02:50:54;;;;;;;;;21.00;17.25;;;;;12.21;64.96;101229.19;4963001;28;45439;-61
2022/05/05 02:56:06;;;;;;;;;19.75;16.25;;;;;12.11;65.34;101204.91;4956735;28;45438;-62
2022/05/05 02:58:31;;;;;;;;;17.00;15.75;;;;;12.18;65.66;101224.03;4956747;28;45239;-60
2022/05/05 03:00:57;;;;;;;;;14.75;14.75;;;;;12.16;65.77;101226.69;4939658;28;45597;-60
2022/05/05 03:03:22;;;;;;;;;18.25;18.25;;;;;12.15;65.70;101222.34;4950212;28;46128;-59
2022/05/05 03:05:48;;;;;;;;;19.25;16.50;;;;;12.15;66.16;101232.03;4975399;28;45430;-61
2022/05/05 03:08:13;;;;;;;;;17.75;15.50;;;;;12.13;66.02;101227.69;4975759;28;45494;-63
2022/05/05 03:10:39;;;;;;;;;19.50;16.75;;;;;12.10;66.72;101226.94;4982416;28;45299;-62
2022/05/05 03:13:05;;;;;;;;;17.75;16.75;;;;;12.10;66.67;101226.94;4954254;28;47788;-61
2022/05/05 03:15:30;;;;;;;;;18.00;16.00;;;;;12.08;66.85;101231.41;4956113;28;45414;-61
2022/05/05 03:17:56;;;;;;;;;17.00;15.00;;;;;12.05;66.74;101226.22;4956523;28;45302;-62
2022/05/05 03:20:21;;;;;;;;;16.00;15.75;;;;;12.03;67.23;101226.31;4956454;28;45340;-62
2022/05/05 03:22:46;;;;;;;;;19.50;16.25;;;;;12.01;67.05;101230.78;4944820;28;47331;-61
2022/05/05 03:25:12;;;;;;;;;18.00;17.25;;;;;11.98;67.48;101226.44;4969855;28;45289;-62
2022/05/05 03:27:39;;;;;;;;;13.50;13.25;;;;;11.87;67.95;101211.91;4955799;28;45214;-61
2022/05/05 03:30:05;;;;;;;;;16.50;15.25;;;;;11.89;68.00;101228.53;4956286;28;45293;-62
2022/05/05 03:32:32;;;;;;;;;15.00;15.00;;;;;11.87;67.88;101227.75;4955139;28;45457;-61
2022/05/05 03:34:58;;;;;;;;;16.50;16.25;;;;;11.80;67.98;101224.44;4955120;28;46169;-61
2022/05/05 03:37:27;;;;;;;;;20.00;16.75;;;;;11.86;68.09;101229.50;4956378;28;45382;-60
2022/05/05 03:39:53;;;;;;;;;18.00;17.75;;;;;11.86;68.00;101228.66;4956359;28;45350;-61
2022/05/05 03:42:18;;;;;;;;;16.25;14.75;;;;;11.88;67.83;101232.09;4955736;28;45335;-62
2022/05/05 03:44:43;;;;;;;;;16.75;16.75;;;;;11.87;68.24;101235.66;4955359;28;45312;-61
2022/05/05 03:47:09;;;;;;;;;17.75;16.50;;;;;11.84;68.15;101240.09;4956265;28;45216;-61
2022/05/05 03:49:34;;;;;;;;;19.50;18.25;;;;;11.84;68.16;101241.88;4956506;28;45318;-61
2022/05/05 03:51:59;;;;;;;;;21.00;18.25;;;;;11.85;68.44;101238.31;4957525;28;45458;-60
2022/05/05 03:54:25;;;;;;;;;18.50;17.00;;;;;11.86;68.66;101237.41;4957437;28;45185;-61
2022/05/05 03:56:50;;;;;;;;;19.00;17.50;;;;;11.86;68.28;101233.94;4957656;28;45177;-61
2022/05/05 03:59:15;;;;;;;;;17.25;15.75;;;;;11.93;68.75;101245.97;4957426;28;45546;-61
2022/05/05 04:01:41;;;;;;;;;16.00;13.25;;;;;11.92;68.68;101237.19;4955688;28;46390;-60
2022/05/05 04:04:06;;;;;;;;;21.00;19.50;;;;;11.94;68.85;101234.50;4956344;28;45365;-62
2022/05/05 04:06:32;;;;;;;;;17.00;14.75;;;;;11.97;68.46;101240.53;4956003;28;45324;-62
2022/05/05 04:08:58;;;;;;;;;19.00;17.75;;;;;11.98;68.98;101238.75;4955757;28;45460;-60
2022/05/05 04:11:24;;;;;;;;;15.00;14.50;;;;;11.89;68.78;101229.38;4956169;28;46321;-62
2022/05/05 04:13:50;;;;;;;;;21.25;16.75;;;;;11.99;69.24;101238.69;4955835;28;45329;-61
2022/05/05 04:16:16;;;;;;;;;20.00;14.50;;;;;12.01;69.16;101241.31;4956297;28;45467;-61
2022/05/05 04:18:41;;;;;;;;;17.00;14.50;;;;;12.04;68.96;101246.47;4955860;28;45302;-61
2022/05/05 04:21:07;;;;;;;;;15.25;14.25;;;;;12.06;69.12;101246.41;4957536;28;45308;-63
2022/05/05 04:23:33;;;;;;;;;19.50;19.00;;;;;12.08;68.96;101242.81;4959252;28;45323;-62
2022/05/05 04:25:59;;;;;;;;;16.00;12.50;;;;;12.10;69.05;101246.25;4957482;28;45277;-61
2022/05/05 04:28:26;;;;;;;;;8.50;8.50;;;;;12.08;69.29;101252.50;4956818;28;45596;-62
2022/05/05 04:30:51;;;;;;;;;17.25;14.50;;;;;12.08;69.29;101260.41;4959277;28;45705;-60
2022/05/05 04:33:17;;;;;;;;;15.75;15.00;;;;;12.01;69.28;101243.97;4957447;28;45408;-60
2022/05/05 04:35:44;;;;;;;;;15.00;14.50;;;;;12.03;69.10;101255.31;4956510;28;45408;-60
2022/05/05 04:38:10;;;;;;;;;19.00;17.25;;;;;12.11;69.03;101260.28;4938035;28;45587;-60
2022/05/05 04:40:35;;;;;;;;;23.75;18.75;;;;;12.13;69.14;101256.69;4958808;28;47390;-60
2022/05/05 04:43:01;;;;;;;;;17.25;17.25;;;;;12.16;69.01;101260.16;4975759;28;45288;-64
2022/05/05 04:45:27;;;;;;;;;18.75;18.75;;;;;12.11;69.17;101255.91;4962399;28;45170;-60
2022/05/05 04:47:52;;;;;;;;;26.50;21.50;;;;;12.13;68.86;101261.97;4957988;28;45593;-61
2022/05/05 04:50:18;;;;;;;;;18.25;18.25;;;;;12.10;69.49;101264.72;4959170;28;46224;-62
2022/05/05 04:52:43;;;;;;;;;21.25;18.00;;;;;12.15;69.21;101268.97;4958233;28;45345;-61
2022/05/05 04:55:09;;;;;;;;;20.00;18.50;;;;;12.17;69.51;101275.06;4958216;28;45251;-65
2022/05/05 04:57:36;;;;;;;;;19.50;17.50;;;;;12.19;69.54;101274.06;4959010;28;45310;-62
2022/05/05 05:00:03;;;;;;;;;18.00;17.25;;;;;12.20;69.24;101278.44;4958194;28;45647;-60
2022/05/05 05:02:28;;;;;;;;;26.50;22.50;;;;;12.22;69.21;101276.63;4958297;28;45400;-60
2022/05/05 05:04:54;;;;;;;;;20.00;19.25;;;;;12.25;69.35;101280.91;4957998;28;45303;-61
2022/05/05 05:07:19;;;;;;;;;25.75;22.25;;;;;12.23;69.67;101274.84;4958704;28;45275;-62
2022/05/05 05:09:45;;;;;;;;;22.50;21.75;;;;;12.13;69.49;101264.63;4959105;28;46592;-60
2022/05/05 05:12:10;;;;;;;;;28.75;22.75;;;;;12.16;69.81;101275.97;4952756;28;45300;-60
2022/05/05 05:14:36;;;;;;;;;25.00;23.00;;;;;12.21;70.10;101284.56;4960005;28;45304;-60
2022/05/05 05:17:01;;;;;;;;;24.50;23.75;;;;;12.19;70.18;101295.16;4962016;28;45848;-62
2022/05/05 05:19:27;;;;;;;;;23.75;20.50;;;;;12.14;70.13;101281.28;4960655;28;45375;-61
2022/05/05 05:21:53;;;;;;;;;27.00;25.50;;;;;12.15;70.78;101287.44;4958931;28;45270;-62
2022/05/05 05:24:18;;;;;;;;;29.50;23.50;;;;;12.13;70.75;101290.09;4958171;28;45225;-61
2022/05/05 05:26:45;;;;;;;;;28.00;25.50;;;;;12.13;70.93;101290.97;4958984;28;45331;-61
2022/05/05 05:29:11;;;;;;;;;25.50;22.75;;;;;12.18;71.13;101298.72;4958988;28;45474;-62
2022/05/05 05:31:36;;;;;;;;;33.75;28.25;;;;;12.22;71.29;101294.22;4959642;28;45254;-61
2022/05/05 05:34:02;;;;;;;;;21.00;19.75;;;;;12.27;70.95;101308.09;4958997;28;45371;-62
2022/05/05 05:36:27;;;;;;;;;31.25;28.00;;;;;12.29;70.94;101303.63;4959893;28;45408;-61
2022/05/05 05:38:52;;;;;;;;;28.25;24.50;;;;;12.32;70.75;101305.31;4973672;28;47220;-62
2022/05/05 05:41:18;;;;;;;;;29.75;26.50;;;;;12.36;71.13;101306.91;4958279;28;45377;-62
2022/05/05 05:43:43;;;;;;;;;28.00;25.00;;;;;12.37;70.86;101304.22;4959380;28;45309;-61
2022/05/05 05:46:09;;;;;;;;;26.25;22.75;;;;;12.40;70.70;101314.66;4959426;28;45479;-60
2022/05/05 05:48:35;;;;;;;;;32.25;28.00;;;;;12.37;71.05;101298.94;4958539;28;45985;-62
2022/05/05 05:51:00;;;;;;;;;32.00;29.75;;;;;12.48;70.90;101309.09;4957607;28;45344;-60
2022/05/05 05:53:26;;;;;;;;;30.75;28.50;;;;;12.48;70.88;101303.81;4959027;28;45379;-62
2022/05/05 05:55:51;;;;;;;;;29.00;27.00;;;;;12.52;70.98;101304.56;4958741;28;46914;-61
2022/05/05 05:58:16;;;;;;;;;30.25;28.50;;;;;12.51;71.29;101301.06;4962263;28;46314;-61
2022/05/05 06:00:42;;;;;;;;;29.25;26.25;;;;;12.62;70.65;101313.84;4959112;28;45269;-62
2022/05/05 06:05:51;;;;;;;;;34.50;27.75;;;;;12.70;70.87;101310.94;4958526;28;45404;-61
2022/05/05 06:08:17;;;;;;;;;30.00;28.00;;;;;12.70;70.45;101317.06;4958218;28;45256;-62
2022/05/05 06:10:43;;;;;;;;;34.25;31.25;;;;;12.70;70.97;101310.94;4957810;28;45316;-62
2022/05/05 06:13:09;;;;;;;;;24.75;22.50;;;;;12.77;70.53;101315.06;4960094;28;45469;-62
2022/05/05 06:15:34;;;;;;;;;32.75;29.25;;;;;12.82;70.46;101314.91;4958758;28;45325;-60
2022/05/05 06:17:59;;;;;;;;;33.50;28.25;;;;;12.88;70.62;101317.31;4956941;28;47168;-61
2022/05/05 06:20:25;;;;;;;;;25.00;23.25;;;;;12.94;70.15;101313.56;4962054;28;45267;-61
2022/05/05 06:22:51;;;;;;;;;32.75;27.75;;;;;12.99;70.25;101314.25;4963944;28;45471;-61
2022/05/05 06:25:19;;;;;;;;;26.75;26.75;;;;;13.03;69.87;101315.84;4959754;28;45437;-65
2022/05/05 06:27:45;;;;;;;;;25.50;25.50;;;;;13.00;70.16;101316.84;4958603;28;46596;-62
2022/05/05 06:30:13;;;;;;;;;25.50;25.25;;;;;13.00;69.84;101311.56;4954776;28;45476;-61
2022/05/05 06:32:38;;;;;;;;;28.50;26.00;;;;;13.10;69.62;101321.78;4956607;28;45243;-62
2022/05/05 06:35:04;;;;;;;;;35.75;29.75;;;;;13.18;69.65;101332.91;4957669;28;45541;-61
2022/05/05 06:37:29;;;;;;;;;31.00;29.00;;;;;13.19;69.56;101334.63;4956444;28;45193;-61
2022/05/05 06:39:55;;;;;;;;;30.00;29.50;;;;;13.22;69.49;101338.91;4956532;28;45403;-62
2022/05/05 06:42:20;;;;;;;;;32.75;30.75;;;;;13.25;69.45;101336.13;4957118;28;45735;-66
2022/05/05 06:44:45;;;;;;;;;34.75;28.50;;;;;13.29;69.43;101330.69;4957212;28;45538;-63
2022/05/05 06:47:11;;;;;;;;;32.50;27.50;;;;;13.30;69.33;101340.34;4956777;28;46468;-62
2022/05/05 06:49:36;;;;;;;;;38.50;34.50;;;;;13.27;69.39;101327.25;4956608;28;45527;-62
2022/05/05 06:52:03;;;;;;;;;33.75;32.00;;;;;13.35;69.28;101345.47;4963505;28;45457;-62
2022/05/05 06:54:28;;;;;;;;;40.25;33.50;;;;;13.33;69.57;101347.31;4957147;28;45516;-61
2022/05/05 06:56:55;;;;;;;;;49.25;38.00;;;;;13.30;69.15;101342.97;4957469;28;45430;-67
2022/05/05 06:59:21;;;;;;;;;44.00;37.00;;;;;13.32;69.38;101344.69;4956907;28;45535;-61
2022/05/05 07:01:53;;;;;;;;;35.75;32.00;;;;;13.34;69.69;101356.06;4956025;28;45384;-61
2022/05/05 07:07:06;;;;;;;;;41.00;34.75;;;;;13.41;69.31;101357.56;4955662;28;45593;-62
2022/05/05 07:12:16;;;;;;;;;34.50;32.25;;;;;13.55;69.23;101357.88;4954698;28;45738;-63
2022/05/05 07:14:43;;;;;;;;;32.25;29.75;;;;;13.59;68.90;101356.00;4956511;28;45399;-62
2022/05/05 07:17:09;;;;;;;;;30.00;27.75;;;;;13.62;68.96;101361.16;4955069;28;47494;-66
2022/05/05 07:19:35;;;;;;;;;35.50;29.50;;;;;13.61;68.87;101355.91;4955857;28;45383;-63
2022/05/05 07:22:00;;;;;;;;;32.50;29.50;;;;;13.66;68.86;101367.16;4956547;28;45197;-63
2022/05/05 07:24:26;;;;;;;;;34.50;30.75;;;;;13.69;68.63;101365.28;4955970;28;45561;-62
2022/05/05 07:26:51;;;;;;;;;33.25;30.25;;;;;13.70;68.64;101369.63;4956106;28;46094;-66
2022/05/05 07:29:16;;;;;;;;;38.50;32.25;;;;;13.72;68.53;101369.56;4959755;28;45285;-65
2022/05/05 07:31:42;;;;;;;;;29.50;29.50;;;;;13.75;68.75;101369.44;4963438;28;45400;-67
2022/05/05 07:34:07;;;;;;;;;37.50;30.50;;;;;13.80;68.61;101372.78;4964261;28;45341;-67
2022/05/05 07:36:33;;;;;;;;;33.25;30.00;;;;;13.92;68.07;101371.38;4959987;28;46034;-64
2022/05/05 07:38:58;;;;;;;;;32.50;28.50;;;;;13.94;67.94;101372.19;4956928;28;45472;-62
2022/05/05 07:41:24;;;;;;;;;31.75;30.00;;;;;13.98;67.87;101367.63;4956422;28;45358;-62
2022/05/05 07:43:52;;;;;;;;;32.25;29.75;;;;;14.00;67.53;101384.31;4958110;28;45496;-62
2022/05/05 07:46:18;;;;;;;;;31.25;28.50;;;;;14.03;67.73;101377.09;4957897;28;45465;-61
2022/05/05 07:48:44;;;;;;;;;29.50;28.75;;;;;14.12;67.43;101373.22;4956286;28;45351;-62
2022/05/05 07:51:10;;;;;;;;;32.25;28.00;;;;;14.31;66.74;101378.59;4956825;28;45294;-61
2022/05/05 07:53:35;;;;;;;;;23.75;23.75;;;;;14.48;66.06;101390.22;4957799;28;45543;-62
2022/05/05 07:56:01;;;;;;;;;29.50;29.25;;;;;14.55;65.93;101381.06;4960389;28;45585;-62
2022/05/05 07:58:26;;;;;;;;;32.00;29.50;;;;;14.65;65.41;101375.38;4956987;28;45224;-62
2022/05/05 08:00:51;;;;;;;;;30.00;28.00;;;;;14.72;65.01;101371.56;4957055;28;45406;-62
2022/05/05 08:03:18;;;;;;;;;37.00;31.75;;;;;14.87;64.95;101383.25;4956144;28;45494;-63
2022/05/05 08:05:44;;;;;;;;;33.00;29.75;;;;;14.94;64.58;101390.00;4955596;28;45290;-62
2022/05/05 08:08:10;;;;;;;;;32.75;27.50;;;;;14.93;63.95;101385.63;4955899;28;45298;-62
2022/05/05 08:10:35;;;;;;;;;27.75;25.75;;;;;14.94;63.83;101384.69;4954439;28;45434;-64
2022/05/05 08:13:01;;;;;;;;;25.25;20.25;;;;;15.07;63.65;101378.81;4955974;28;45620;-62
2022/05/05 08:15:26;;;;;;;;;27.75;26.25;;;;;15.24;63.07;101389.50;4956320;28;46282;-64
2022/05/05 08:17:52;;;;;;;;;29.50;27.25;;;;;15.38;62.94;101393.28;4956274;28;45299;-62
2022/05/05 08:20:17;;;;;;;;;33.50;29.75;;;;;15.66;62.45;101391.94;4939737;28;45203;-60
2022/05/05 08:22:42;;;;;;;;;32.75;29.50;;;;;15.86;61.89;101393.63;4956440;28;45620;-62
2022/05/05 08:30:36;;;;;;;;;27.50;26.50;;;;;15.86;60.92;101383.84;4956239;28;45421;-61
2022/05/05 08:33:03;;;;;;;;;31.00;27.50;;;;;16.00;60.19;101393.81;4955850;28;45470;-63
2022/05/05 08:35:28;;;;;;;;;31.00;29.00;;;;;16.11;60.56;101400.38;4955903;28;46465;-62
2022/05/05 08:37:55;;;;;;;;;29.00;27.00;;;;;16.36;60.15;101398.19;4955832;28;45277;-62
2022/05/05 08:40:23;;;;;;;;;26.75;23.25;;;;;16.59;59.07;101395.28;4956184;28;45339;-62
2022/05/05 08:42:49;;;;;;;;;32.00;25.50;;;;;16.78;58.56;101395.19;4956272;28;45346;-62
2022/05/05 08:45:14;;;;;;;;;32.75;28.25;;;;;16.96;58.05;101401.28;4955887;28;45952;-63
2022/05/05 08:47:44;;;;;;;;;24.25;24.25;;;;;17.15;57.93;101406.50;4956343;28;45433;-62
2022/05/05 08:50:10;;;;;;;;;27.25;26.25;;;;;17.34;57.22;101406.34;4956315;28;45343;-61
2022/05/05 08:52:43;;;;;;;;;33.25;29.50;;;;;17.54;56.51;101403.53;4956123;28;45195;-62
2022/05/05 08:55:13;;;;;;;;;29.50;28.50;;;;;17.74;56.65;101410.34;4955910;28;46150;-61
2022/05/05 08:57:38;;;;;;;;;28.00;28.00;;;;;18.02;56.45;101411.44;4956040;28;45448;-62
2022/05/05 09:00:04;;;;;;;;;26.25;25.00;;;;;18.18;54.57;101417.59;4938221;28;45438;-61
2022/05/05 09:02:30;;;;;;;;;20.75;20.50;;;;;18.24;54.68;101419.91;4955963;28;45311;-61
2022/05/05 09:04:55;;;;;;;;;19.00;19.00;;;;;18.43;54.79;101405.47;4955768;28;45326;-62
2022/05/05 09:07:20;;;;;;;;;16.50;16.50;;;;;18.66;53.17;101405.88;4957080;28;45226;-61
2022/05/05 09:09:48;;;;;;;;;20.50;19.25;;;;;18.74;53.58;101408.09;4957039;28;45337;-60
2022/05/05 09:12:19;;;;;;;;;21.00;20.25;;;;;18.81;52.90;101412.09;4956836;28;45430;-62
2022/05/05 09:14:50;;;;;;;;;24.75;23.25;;;;;18.78;52.69;101405.13;4955201;28;46131;-61
2022/05/05 09:17:22;;;;;;;;;24.00;19.00;;;;;18.80;53.18;101416.53;4956208;28;45217;-61
2022/05/05 09:19:52;;;;;;;;;25.25;25.25;;;;;18.81;52.59;101417.41;4938972;28;45526;-62
2022/05/05 09:22:20;;;;;;;;;22.25;19.75;;;;;18.67;52.63;101411.13;4942263;28;45530;-62
2022/05/05 09:24:49;;;;;;;;;22.00;21.25;;;;;18.53;52.73;101414.63;4956027;28;46199;-63
2022/05/05 09:27:16;;;;;;;;;50.00;41.50;;;;;18.61;53.07;101411.50;4958025;28;45354;-61
2022/05/05 09:29:41;;;;;;;;;29.00;28.00;;;;;18.86;52.30;101409.13;4960392;28;45384;-61
2022/05/05 09:32:11;;;;;;;;;23.00;20.75;;;;;19.04;51.81;101408.00;4960867;28;45536;-62
2022/05/05 09:34:37;;;;;;;;;19.25;18.25;;;;;19.20;51.09;101407.91;4958960;28;45343;-61
2022/05/05 09:37:20;;;;;;;;;18.00;18.00;;;;;19.30;50.83;101408.19;4957821;28;45241;-61
2022/05/05 09:39:46;;;;;;;;;17.50;16.25;;;;;19.67;49.92;101415.63;4959246;28;45316;-62
2022/05/05 09:42:32;;;;;;;;;13.75;13.75;;;;;19.89;48.35;101412.34;4959499;28;45604;-62
2022/05/05 09:45:12;;;;;;;;;13.00;13.00;;;;;20.01;47.80;101402.72;4958187;28;45377;-62
2022/05/05 09:47:41;;;;;;;;;10.75;7.50;;;;;20.04;47.86;101406.97;4957838;28;45450;-60
2022/05/05 09:50:07;;;;;;;;;16.50;13.75;;;;;20.20;47.71;101409.47;4940187;28;45487;-62
2022/05/05 09:58:08;;;;;;;;;5.25;3.75;;;;;19.94;46.18;101410.28;4957659;28;45292;-61
2022/05/05 10:00:44;;;;;;;;;8.00;8.00;;;;;19.57;45.85;101404.66;4957607;28;45435;-62
2022/05/05 10:06:06;;;;;;;;;9.50;9.25;;;;;19.10;46.04;101412.09;4957404;28;45836;-61
2022/05/05 10:08:42;;;;;;;;;10.00;10.00;;;;;19.02;46.36;101417.06;4957239;28;45334;-61
2022/05/05 10:11:08;;;;;;;;;11.00;9.25;;;;;19.00;47.03;101406.47;4958256;28;45345;-63
2022/05/05 10:13:37;;;;;;;;;9.75;9.75;;;;;19.21;46.72;101408.75;4958710;28;45666;-61
2022/05/05 10:16:04;;;;;;;;;11.75;11.75;;;;;19.35;46.98;101407.88;4957399;28;45510;-62
2022/05/05 10:18:32;;;;;;;;;7.00;7.00;;;;;19.57;46.19;101412.69;4957390;28;45359;-63
2022/05/05 10:20:58;;;;;;;;;7.25;7.25;;;;;19.62;45.76;101413.22;4957150;28;45371;-62
2022/05/05 10:23:50;;;;;;;;;12.25;9.50;;;;;19.47;45.32;101414.22;4957444;28;45250;-61
2022/05/05 10:26:22;;;;;;;;;8.00;8.00;;;;;19.10;45.05;101412.97;4958136;28;45318;-62
2022/05/05 10:28:50;;;;;;;;;8.75;8.75;;;;;18.75;45.69;101412.47;4957424;28;45433;-62
2022/05/05 10:31:30;;;;;;;;;8.50;8.50;;;;;18.54;45.92;101410.13;4957909;28;45393;-62
2022/05/05 10:34:30;;;;;;;;;9.50;9.50;;;;;18.51;46.55;101416.53;4957603;28;45252;-63
2022/05/05 10:36:58;;;;;;;;;7.00;7.00;;;;;18.50;46.33;101420.13;4925002;28;45483;-60
2022/05/05 10:39:25;;;;;;;;;10.00;9.50;;;;;18.57;45.80;101420.63;4959022;28;45240;-63
2022/05/05 10:41:51;;;;;;;;;8.75;8.75;;;;;18.65;45.88;101422.81;4959403;28;45541;-63
2022/05/05 10:44:16;;;;;;;;;10.50;9.25;;;;;18.62;45.67;101421.22;4959199;28;45618;-64
2022/05/05 10:47:03;;;;;;;;;8.50;7.00;;;;;18.61;46.38;101419.50;4958285;28;46208;-63
2022/05/05 10:49:38;;;;;;;;;8.75;8.75;;;;;18.61;46.43;101421.28;4957950;28;45473;-62
2022/05/05 10:52:09;;;;;;;;;11.25;10.00;;;;;18.53;46.71;101422.63;4957945;28;45328;-62
2022/05/05 10:54:39;;;;;;;;;8.00;7.00;;;;;18.44;45.60;101424.97;4939415;28;45654;-62
2022/05/05 10:57:26;;;;;;;;;6.75;6.00;;;;;18.30;46.37;101425.81;4956556;28;46518;-62
2022/05/05 11:00:07;;;;;;;;;7.25;7.25;;;;;18.23;46.58;101419.97;4956986;28;45427;-62
2022/05/05 11:02:34;;;;;;;;;7.75;7.00;;;;;18.17;46.84;101413.22;4956919;28;45444;-63
2022/05/05 11:05:20;;;;;;;;;7.25;7.25;;;;;18.30;46.56;101424.00;4940279;28;45465;-62
2022/05/05 11:07:49;;;;;;;;;8.00;7.00;;;;;18.42;46.71;101419.75;4931654;28;46302;-62
2022/05/05 11:10:36;;;;;;;;;10.00;10.00;;;;;18.73;46.74;101414.38;4957459;28;45333;-62
2022/05/05 11:13:01;;;;;;;;;6.75;6.50;;;;;19.14;45.77;101410.13;4939382;28;45356;-61
2022/05/05 11:21:32;;;;;;;;;8.75;8.75;;;;;19.92;43.65;101403.34;4937770;28;44882;-63
2022/05/05 11:23:59;;;;;;;;;7.50;7.50;;;;;19.73;43.46;101403.66;4936879;28;45383;-61
2022/05/05 11:26:24;;;;;;;;;7.50;7.50;;;;;19.50;43.68;101404.19;4937027;28;45352;-62
2022/05/05 11:28:51;;;;;;;;;6.75;6.75;;;;;19.34;43.52;101400.81;4936742;28;46942;-64
2022/05/05 11:31:20;;;;;;;;;6.00;6.00;;;;;19.10;44.33;101410.31;4939155;28;45315;-61
2022/05/05 11:33:58;;;;;;;;;8.00;7.00;;;;;18.88;44.61;101405.41;4938530;28;45402;-64
2022/05/05 11:36:29;;;;;;;;;13.50;13.00;;;;;18.74;45.03;101406.25;4940302;28;45221;-63
2022/05/05 11:38:55;;;;;;;;;9.50;8.25;;;;;18.65;44.57;101407.72;4923425;28;47295;-61
2022/05/05 11:41:23;;;;;;;;;7.00;7.00;;;;;18.52;45.33;101407.59;4937551;28;45844;-62
2022/05/05 11:46:34;;;;;;;;;6.25;6.25;;;;;18.47;45.43;101406.13;4939003;28;45344;-61
2022/05/05 11:48:59;;;;;;;;;5.25;5.25;;;;;18.44;44.84;101409.84;4937034;28;45597;-61
2022/05/05 11:51:28;;;;;;;;;6.25;6.25;;;;;18.31;44.55;101400.91;4937290;28;45486;-62
2022/05/05 11:54:18;;;;;;;;;8.00;8.00;;;;;18.28;45.29;101406.41;4937941;28;45271;-61
2022/05/05 11:56:47;;;;;;;;;6.50;6.50;;;;;18.25;45.13;101400.31;4910003;28;45590;-63